createdAt,value
2017-09-30T00:02:18.092Z,14.00
2017-09-30T00:04:46.148Z,14.00
2017-09-30T00:07:14.196Z,14.00
2017-09-30T00:09:42.207Z,14.00
2017-09-30T00:12:12.232Z,14.10
2017-09-30T00:14:48.788Z,14.20
2017-09-30T00:17:22.599Z,14.20
2017-09-30T00:19:51.628Z,14.30
2017-09-30T00:22:19.671Z,14.40
2017-09-30T00:24:53.291Z,14.40
2017-09-30T00:27:23.095Z,14.40
2017-09-30T00:29:52.933Z,14.40
2017-09-30T00:32:22.911Z,14.40
2017-09-30T00:34:50.939Z,14.40
2017-09-30T00:37:22.151Z,14.40
2017-09-30T00:39:51.112Z,14.30
2017-09-30T00:42:19.173Z,14.40
2017-09-30T00:44:52.535Z,14.40
2017-09-30T00:47:21.583Z,14.40
2017-09-30T00:49:56.123Z,14.40
2017-09-30T00:52:25.099Z,14.40
2017-09-30T00:54:53.635Z,14.40
2017-09-30T00:57:27.095Z,14.40
2017-09-30T00:59:55.136Z,14.40
2017-09-30T01:02:26.863Z,14.30
2017-09-30T01:05:00.503Z,14.30
2017-09-30T01:07:31.271Z,14.30
2017-09-30T01:09:59.311Z,14.20
2017-09-30T01:12:29.007Z,14.20
2017-09-30T01:14:58.839Z,14.20
2017-09-30T01:17:28.531Z,14.20
2017-09-30T01:19:57.327Z,14.20
2017-09-30T01:22:26.234Z,14.20
2017-09-30T01:24:54.219Z,14.20
2017-09-30T01:27:24.183Z,14.20
2017-09-30T01:29:52.218Z,14.20
2017-09-30T01:32:21.235Z,14.20
2017-09-30T01:34:51.263Z,14.20
2017-09-30T01:37:19.303Z,14.20
2017-09-30T01:39:47.333Z,14.20
2017-09-30T01:42:16.163Z,14.10
2017-09-30T01:44:47.326Z,14.10
2017-09-30T01:47:15.350Z,14.10
2017-09-30T01:49:44.162Z,14.00
2017-09-30T01:52:12.186Z,14.00
2017-09-30T01:54:40.999Z,14.10
2017-09-30T01:57:09.043Z,14.10
2017-09-30T01:59:37.078Z,14.10
2017-09-30T02:02:10.871Z,14.10
2017-09-30T02:04:38.910Z,14.10
2017-09-30T02:07:08.971Z,14.10
2017-09-30T02:09:38.036Z,14.10
2017-09-30T02:12:06.947Z,14.10
2017-09-30T02:14:35.871Z,14.20
2017-09-30T02:17:06.634Z,14.10
2017-09-30T02:19:34.654Z,14.10
2017-09-30T02:22:02.694Z,14.10
2017-09-30T02:24:35.833Z,14.10
2017-09-30T02:27:03.854Z,14.10
2017-09-30T02:29:35.438Z,14.10
2017-09-30T02:32:03.485Z,14.10
2017-09-30T02:34:32.422Z,14.10
2017-09-30T02:37:02.210Z,14.10
2017-09-30T02:39:30.250Z,14.10
2017-09-30T02:42:10.515Z,14.10
2017-09-30T02:44:38.566Z,14.10
2017-09-30T02:47:06.598Z,14.10
2017-09-30T02:49:35.390Z,14.10
2017-09-30T02:52:05.094Z,14.00
2017-09-30T02:54:33.886Z,14.00
2017-09-30T02:57:04.602Z,14.10
2017-09-30T02:59:33.538Z,14.00
2017-09-30T03:02:01.558Z,14.00
2017-09-30T03:04:29.590Z,14.10
2017-09-30T03:06:59.667Z,14.00
2017-09-30T03:09:28.473Z,13.90
2017-09-30T03:11:56.486Z,13.90
2017-09-30T03:14:24.538Z,13.90
2017-09-30T03:16:52.557Z,13.80
2017-09-30T03:19:22.360Z,13.80
2017-09-30T03:21:51.374Z,13.70
2017-09-30T03:24:20.174Z,13.70
2017-09-30T03:26:52.010Z,13.70
2017-09-30T03:29:21.806Z,13.70
2017-09-30T03:32:01.146Z,13.60
2017-09-30T03:34:29.993Z,13.70
2017-09-30T03:36:58.001Z,13.60
2017-09-30T03:39:28.029Z,13.60
2017-09-30T03:41:56.830Z,13.50
2017-09-30T03:44:26.610Z,13.50
2017-09-30T03:46:54.653Z,13.50
2017-09-30T03:49:22.697Z,13.50
2017-09-30T03:51:50.749Z,13.50
2017-09-30T03:54:19.565Z,13.40
2017-09-30T03:56:48.533Z,13.40
2017-09-30T03:59:22.057Z,13.40
2017-09-30T04:01:51.113Z,13.40
2017-09-30T04:04:26.629Z,13.40
2017-09-30T04:06:55.633Z,13.40
2017-09-30T04:09:27.509Z,13.40
2017-09-30T04:11:56.329Z,13.40
2017-09-30T04:14:27.965Z,13.40
2017-09-30T04:16:56.925Z,13.40
2017-09-30T04:19:24.957Z,13.40
2017-09-30T04:21:54.933Z,13.40
2017-09-30T04:24:28.177Z,13.30
2017-09-30T04:27:02.605Z,13.30
2017-09-30T04:29:32.541Z,13.40
2017-09-30T04:32:02.297Z,13.30
2017-09-30T04:34:36.176Z,13.30
2017-09-30T04:37:05.013Z,13.30
2017-09-30T04:39:36.249Z,13.30
2017-09-30T04:42:05.309Z,13.30
2017-09-30T04:44:33.341Z,13.30
2017-09-30T04:47:01.373Z,13.30
2017-09-30T04:49:29.440Z,13.30
2017-09-30T04:51:58.248Z,13.10
2017-09-30T04:54:27.287Z,13.10
2017-09-30T04:57:06.810Z,13.00
2017-09-30T04:59:34.820Z,13.00
2017-09-30T05:02:03.629Z,12.90
2017-09-30T05:04:33.729Z,12.90
2017-09-30T05:07:03.672Z,12.90
2017-09-30T05:09:33.729Z,12.80
2017-09-30T05:12:01.777Z,12.80
2017-09-30T05:14:30.781Z,12.70
2017-09-30T05:16:58.829Z,12.60
2017-09-30T05:19:26.905Z,12.50
2017-09-30T05:21:54.956Z,12.40
2017-09-30T05:24:22.993Z,12.40
2017-09-30T05:26:52.781Z,12.30
2017-09-30T05:29:21.625Z,12.30
2017-09-30T05:31:49.668Z,12.30
2017-09-30T05:34:18.612Z,12.40
2017-09-30T05:36:48.644Z,12.30
2017-09-30T05:39:17.645Z,12.40
2017-09-30T05:41:46.464Z,12.30
2017-09-30T05:44:14.501Z,12.30
2017-09-30T05:46:45.232Z,12.30
2017-09-30T05:49:16.772Z,12.20
2017-09-30T05:51:45.785Z,12.20
2017-09-30T05:54:16.514Z,12.20
2017-09-30T05:56:44.540Z,12.20
2017-09-30T05:59:13.580Z,12.20
2017-09-30T06:01:43.293Z,12.20
2017-09-30T06:04:12.088Z,12.20
2017-09-30T06:06:41.780Z,12.30
2017-09-30T06:09:10.592Z,12.30
2017-09-30T06:11:39.385Z,12.40
2017-09-30T06:14:08.332Z,12.40
2017-09-30T06:16:41.044Z,12.40
2017-09-30T06:19:09.888Z,12.40
2017-09-30T06:21:38.928Z,12.30
2017-09-30T06:24:09.640Z,12.40
2017-09-30T06:26:40.360Z,12.40
2017-09-30T06:29:08.400Z,12.40
2017-09-30T06:31:39.612Z,12.30
2017-09-30T06:34:08.536Z,12.40
2017-09-30T06:36:36.576Z,12.30
2017-09-30T06:39:04.633Z,12.40
2017-09-30T06:41:33.436Z,12.50
2017-09-30T06:44:01.472Z,12.50
2017-09-30T06:46:29.512Z,12.50
2017-09-30T06:49:00.693Z,12.60
2017-09-30T06:51:30.512Z,12.70
2017-09-30T06:53:59.320Z,12.80
2017-09-30T06:56:28.236Z,12.80
2017-09-30T06:58:58.193Z,12.90
2017-09-30T07:01:27.138Z,13.00
2017-09-30T07:04:05.356Z,13.10
2017-09-30T07:06:34.372Z,13.40
2017-09-30T07:09:02.400Z,13.90
2017-09-30T07:11:30.444Z,14.40
2017-09-30T07:13:59.268Z,15.10
2017-09-30T07:16:27.279Z,15.10
2017-09-30T07:18:56.276Z,15.40
2017-09-30T07:21:26.995Z,16.00
2017-09-30T07:23:55.052Z,16.00
2017-09-30T07:26:24.075Z,16.30
2017-09-30T07:29:01.219Z,17.10
2017-09-30T07:31:32.216Z,17.10
2017-09-30T07:34:08.735Z,17.90
2017-09-30T07:36:40.020Z,17.90
2017-09-30T07:39:08.811Z,17.70
2017-09-30T07:41:36.831Z,17.70
2017-09-30T07:44:11.928Z,17.90
2017-09-30T07:46:39.963Z,17.60
2017-09-30T07:49:08.010Z,17.40
2017-09-30T07:51:36.044Z,17.20
2017-09-30T07:54:04.068Z,17.00
2017-09-30T07:56:32.099Z,16.90
2017-09-30T07:59:02.095Z,16.80
2017-09-30T08:01:33.195Z,16.80
2017-09-30T08:04:01.455Z,16.30
2017-09-30T08:06:32.711Z,16.40
2017-09-30T08:09:01.645Z,16.50
2017-09-30T08:11:36.195Z,16.60
2017-09-30T08:14:06.483Z,16.60
2017-09-30T08:16:35.268Z,16.80
2017-09-30T08:19:04.955Z,17.00
2017-09-30T08:21:34.616Z,17.00
2017-09-30T08:24:03.539Z,17.10
2017-09-30T08:26:33.558Z,17.40
2017-09-30T08:29:11.455Z,17.50
2017-09-30T08:31:39.471Z,17.70
2017-09-30T08:34:08.423Z,18.00
2017-09-30T08:36:38.452Z,17.90
2017-09-30T08:39:06.483Z,17.80
2017-09-30T08:41:35.506Z,17.90
2017-09-30T08:44:04.495Z,17.90
2017-09-30T08:46:34.504Z,18.10
2017-09-30T08:49:05.882Z,18.40
2017-09-30T08:51:35.682Z,18.30
2017-09-30T08:54:03.711Z,18.20
2017-09-30T08:56:31.735Z,18.70
2017-09-30T08:59:05.207Z,18.80
2017-09-30T09:01:34.230Z,18.80
2017-09-30T09:04:04.015Z,19.20
2017-09-30T09:06:32.035Z,19.20
2017-09-30T09:09:02.035Z,19.40
2017-09-30T09:11:30.058Z,19.20
2017-09-30T09:14:00.078Z,19.10
2017-09-30T09:16:28.118Z,19.70
2017-09-30T09:18:59.650Z,20.10
2017-09-30T09:21:29.034Z,20.80
2017-09-30T09:23:57.814Z,20.80
2017-09-30T09:26:27.509Z,20.90
2017-09-30T09:28:55.534Z,20.90
2017-09-30T09:31:26.730Z,20.90
2017-09-30T09:33:55.546Z,21.80
2017-09-30T09:36:23.601Z,21.70
2017-09-30T09:38:53.910Z,22.50
2017-09-30T09:41:23.990Z,22.50
2017-09-30T09:43:52.022Z,22.70
2017-09-30T09:46:20.042Z,22.60
2017-09-30T09:48:53.570Z,22.70
2017-09-30T09:51:22.370Z,22.90
2017-09-30T09:53:51.442Z,23.00
2017-09-30T09:56:20.374Z,23.00
2017-09-30T09:58:48.832Z,22.80
2017-09-30T10:01:16.838Z,22.70
2017-09-30T10:03:45.898Z,22.70
2017-09-30T10:06:14.690Z,22.50
2017-09-30T10:08:47.234Z,22.20
2017-09-30T10:11:15.278Z,22.10
2017-09-30T10:13:49.738Z,21.80
2017-09-30T10:16:17.762Z,20.90
2017-09-30T10:18:45.798Z,21.00
2017-09-30T10:21:13.850Z,21.10
2017-09-30T10:23:41.870Z,21.20
2017-09-30T10:26:09.902Z,21.00
2017-09-30T10:28:42.322Z,20.40
2017-09-30T10:31:11.246Z,20.40
2017-09-30T10:33:39.290Z,20.60
2017-09-30T10:36:13.349Z,20.70
2017-09-30T10:38:42.145Z,21.80
2017-09-30T10:41:10.178Z,21.80
2017-09-30T10:43:38.230Z,22.50
2017-09-30T10:46:07.182Z,22.30
2017-09-30T10:48:36.858Z,23.80
2017-09-30T10:51:04.898Z,23.70
2017-09-30T10:53:32.942Z,24.50
2017-09-30T10:56:02.882Z,24.50
2017-09-30T10:58:31.698Z,24.70
2017-09-30T11:01:00.510Z,24.90
2017-09-30T11:03:30.298Z,24.70
2017-09-30T11:05:58.362Z,24.70
2017-09-30T11:08:26.390Z,24.90
2017-09-30T11:10:54.421Z,24.90
2017-09-30T11:13:25.145Z,24.80
2017-09-30T11:15:53.959Z,24.50
2017-09-30T11:18:22.830Z,24.60
2017-09-30T11:20:52.855Z,24.60
2017-09-30T11:23:22.581Z,23.50
2017-09-30T11:25:51.645Z,23.50
2017-09-30T11:28:21.457Z,23.20
2017-09-30T11:30:50.297Z,23.10
2017-09-30T11:33:26.074Z,23.10
2017-09-30T11:35:55.097Z,23.20
2017-09-30T11:38:27.117Z,23.10
2017-09-30T11:40:55.149Z,23.10
2017-09-30T11:43:23.177Z,23.30
2017-09-30T11:45:51.225Z,23.10
2017-09-30T11:48:21.610Z,22.90
2017-09-30T11:50:51.409Z,22.70
2017-09-30T11:53:20.213Z,22.50
2017-09-30T11:55:48.241Z,22.50
2017-09-30T11:58:17.201Z,22.30
2017-09-30T12:00:45.247Z,22.40
2017-09-30T12:03:14.081Z,22.00
2017-09-30T12:05:42.850Z,22.00
2017-09-30T12:08:14.389Z,22.20
2017-09-30T12:10:43.529Z,22.50
2017-09-30T12:13:13.285Z,22.60
2017-09-30T12:15:41.373Z,22.60
2017-09-30T12:18:11.313Z,22.70
2017-09-30T12:20:39.357Z,22.50
2017-09-30T12:23:17.385Z,22.20
2017-09-30T12:25:46.429Z,21.90
2017-09-30T12:28:14.473Z,22.10
2017-09-30T12:30:47.089Z,22.20
2017-09-30T12:33:15.129Z,22.10
2017-09-30T12:35:44.973Z,22.10
2017-09-30T12:38:13.045Z,22.10
2017-09-30T12:40:41.081Z,22.00
2017-09-30T12:43:10.797Z,22.10
2017-09-30T12:45:40.541Z,22.20
2017-09-30T12:48:09.585Z,22.20
2017-09-30T12:50:38.572Z,22.40
2017-09-30T12:53:10.120Z,22.50
2017-09-30T12:55:38.148Z,22.10
2017-09-30T12:58:06.197Z,22.00
2017-09-30T13:00:34.236Z,21.80
2017-09-30T13:03:02.304Z,21.80
2017-09-30T13:05:30.345Z,21.80
2017-09-30T13:07:58.402Z,21.80
2017-09-30T13:10:26.448Z,21.80
2017-09-30T13:12:55.416Z,21.90
2017-09-30T13:15:23.748Z,22.10
2017-09-30T13:17:52.286Z,22.20
2017-09-30T13:20:21.317Z,21.80
2017-09-30T13:22:49.376Z,22.10
2017-09-30T13:25:20.392Z,22.10
2017-09-30T13:27:49.211Z,22.20
2017-09-30T13:30:22.184Z,22.20
2017-09-30T13:32:50.234Z,22.80
2017-09-30T13:35:19.044Z,23.50
2017-09-30T13:37:49.024Z,23.50
2017-09-30T13:40:17.057Z,23.60
2017-09-30T13:42:48.424Z,23.30
2017-09-30T13:45:17.412Z,23.60
2017-09-30T13:47:47.152Z,24.20
2017-09-30T13:50:19.791Z,24.30
2017-09-30T13:52:47.816Z,24.30
2017-09-30T13:55:15.840Z,23.90
2017-09-30T13:57:43.872Z,23.50
2017-09-30T14:00:22.719Z,23.30
2017-09-30T14:02:50.771Z,23.60
2017-09-30T14:05:19.140Z,23.90
2017-09-30T14:07:47.191Z,24.10
2017-09-30T14:10:16.005Z,23.70
2017-09-30T14:12:44.042Z,23.70
2017-09-30T14:15:12.060Z,23.80
2017-09-30T14:17:40.100Z,23.70
2017-09-30T14:20:09.852Z,23.30
2017-09-30T14:22:37.880Z,23.30
2017-09-30T14:25:07.652Z,23.00
2017-09-30T14:27:35.672Z,23.00
2017-09-30T14:30:03.696Z,22.80
2017-09-30T14:32:31.723Z,22.80
2017-09-30T14:35:00.759Z,22.80
2017-09-30T14:37:28.788Z,22.90
2017-09-30T14:39:57.703Z,22.90
2017-09-30T14:42:27.455Z,22.20
2017-09-30T14:44:58.075Z,21.70
2017-09-30T14:47:26.856Z,21.40
2017-09-30T14:49:56.643Z,21.40
2017-09-30T14:52:24.675Z,21.30
2017-09-30T14:54:52.689Z,21.20
2017-09-30T14:57:20.708Z,21.00
2017-09-30T14:59:48.743Z,20.90
2017-09-30T15:02:17.712Z,20.80
2017-09-30T15:04:45.727Z,20.80
2017-09-30T15:07:13.760Z,20.70
2017-09-30T15:09:41.780Z,20.70
2017-09-30T15:12:09.795Z,20.50
2017-09-30T15:14:37.832Z,20.40
2017-09-30T15:17:11.776Z,20.00
2017-09-30T15:22:40.183Z,20.00
2017-09-30T15:25:10.112Z,20.00
2017-09-30T15:27:38.895Z,20.00
2017-09-30T15:30:08.683Z,20.10
2017-09-30T15:32:36.712Z,20.10
2017-09-30T15:35:05.651Z,20.20
2017-09-30T15:37:34.651Z,20.30
2017-09-30T15:40:02.666Z,20.30
2017-09-30T15:42:30.683Z,20.30
2017-09-30T15:45:02.746Z,20.40
2017-09-30T15:47:32.752Z,20.50
2017-09-30T15:50:01.980Z,20.50
2017-09-30T15:52:30.944Z,20.50
2017-09-30T15:55:00.687Z,20.40
2017-09-30T15:57:30.480Z,20.20
2017-09-30T15:59:59.464Z,20.10
2017-09-30T16:02:33.467Z,20.20
2017-09-30T16:05:05.431Z,20.10
2017-09-30T16:07:33.480Z,19.90
2017-09-30T16:10:06.281Z,19.60
2017-09-30T16:12:34.307Z,19.40
2017-09-30T16:15:07.952Z,19.40
2017-09-30T16:17:36.026Z,19.40
2017-09-30T16:20:06.079Z,19.50
2017-09-30T16:22:34.107Z,19.30
2017-09-30T16:25:03.128Z,19.10
2017-09-30T16:27:33.125Z,18.80
2017-09-30T16:30:01.147Z,18.70
2017-09-30T16:32:37.855Z,18.30
2017-09-30T16:35:06.854Z,18.30
2017-09-30T16:37:36.611Z,18.20
2017-09-30T16:40:06.612Z,18.00
2017-09-30T16:42:36.495Z,17.80
2017-09-30T16:45:06.676Z,17.80
2017-09-30T16:47:34.711Z,17.70
2017-09-30T16:50:04.511Z,17.50
2017-09-30T16:52:32.551Z,17.40
2017-09-30T16:55:01.568Z,17.40
2017-09-30T16:57:29.599Z,17.30
2017-09-30T16:59:57.627Z,17.20
2017-09-30T17:02:26.428Z,17.10
2017-09-30T17:04:55.381Z,17.10
2017-09-30T17:07:23.415Z,17.10
2017-09-30T17:09:52.440Z,17.00
2017-09-30T17:12:20.471Z,17.00
2017-09-30T17:14:48.502Z,16.90
2017-09-30T17:17:17.679Z,16.80
2017-09-30T17:19:45.703Z,16.80
2017-09-30T17:22:19.286Z,16.70
2017-09-30T17:24:48.970Z,16.70
2017-09-30T17:27:16.997Z,16.60
2017-09-30T17:29:46.034Z,16.60
2017-09-30T17:32:14.059Z,16.60
2017-09-30T17:34:43.115Z,16.50
2017-09-30T17:37:11.166Z,16.50
2017-09-30T17:39:40.146Z,16.50
2017-09-30T17:42:09.130Z,16.50
2017-09-30T17:44:37.183Z,16.50
2017-09-30T17:47:05.219Z,16.40
2017-09-30T17:49:33.246Z,16.40
2017-09-30T17:52:01.282Z,16.50
2017-09-30T17:54:29.310Z,16.50
2017-09-30T17:56:58.098Z,16.50
2017-09-30T17:59:26.914Z,16.40
2017-09-30T18:01:54.938Z,16.40
2017-09-30T18:04:24.870Z,16.40
2017-09-30T18:06:53.682Z,16.40
2017-09-30T18:09:21.702Z,16.30
2017-09-30T18:11:50.654Z,16.30
2017-09-30T18:14:18.703Z,16.30
2017-09-30T18:16:46.754Z,16.20
2017-09-30T18:19:15.550Z,16.00
2017-09-30T18:21:44.370Z,16.00
2017-09-30T18:24:17.223Z,16.00
2017-09-30T18:26:46.838Z,16.00
2017-09-30T18:29:14.886Z,16.00
2017-09-30T18:31:43.866Z,16.00
2017-09-30T18:34:11.910Z,16.00
2017-09-30T18:36:39.998Z,16.00
2017-09-30T18:39:08.033Z,16.00
2017-09-30T18:41:36.098Z,16.00
2017-09-30T18:44:04.165Z,16.00
2017-09-30T18:46:32.842Z,16.10
2017-09-30T18:49:02.362Z,16.10
2017-09-30T18:51:30.385Z,16.10
2017-09-30T18:54:00.150Z,16.20
2017-09-30T18:56:28.194Z,16.10
2017-09-30T18:58:56.242Z,16.10
2017-09-30T19:01:24.266Z,16.00
2017-09-30T19:03:53.322Z,16.10
2017-09-30T19:06:23.141Z,15.90
2017-09-30T19:08:51.942Z,15.80
2017-09-30T19:11:21.726Z,15.70
2017-09-30T19:13:50.530Z,15.60
2017-09-30T19:16:18.562Z,15.60
2017-09-30T19:18:46.610Z,15.60
2017-09-30T19:21:14.650Z,15.70
2017-09-30T19:23:42.678Z,15.60
2017-09-30T19:26:10.738Z,15.60
2017-09-30T19:28:39.729Z,15.50
2017-09-30T19:31:07.790Z,15.40
2017-09-30T19:33:36.802Z,15.40
2017-09-30T19:36:04.881Z,15.40
2017-09-30T19:38:34.670Z,15.30
2017-09-30T19:41:02.734Z,15.30
2017-09-30T19:43:30.970Z,15.30
2017-09-30T19:45:59.734Z,15.40
2017-09-30T19:48:28.549Z,15.50
2017-09-30T19:50:57.357Z,15.50
2017-09-30T19:53:25.393Z,15.50
2017-09-30T19:55:53.430Z,15.60
2017-09-30T19:58:22.357Z,15.60
2017-09-30T20:00:50.382Z,15.60
2017-09-30T20:03:20.953Z,15.80
2017-09-30T20:05:48.989Z,15.80
2017-09-30T20:08:17.017Z,15.80
2017-09-30T20:10:45.085Z,15.90
2017-09-30T20:13:13.123Z,15.90
2017-09-30T20:15:42.921Z,16.00
2017-09-30T20:18:11.857Z,16.00
2017-09-30T20:20:39.913Z,16.10
2017-09-30T20:23:07.953Z,16.10
2017-09-30T20:25:36.870Z,16.10
2017-09-30T20:28:05.853Z,16.10
2017-09-30T20:30:34.653Z,16.10
2017-09-30T20:33:04.641Z,16.10
2017-09-30T20:35:33.445Z,16.00
2017-09-30T20:38:03.229Z,15.80
2017-09-30T20:40:32.229Z,15.80
2017-09-30T20:43:01.045Z,15.20
2017-09-30T20:45:29.077Z,15.10
2017-09-30T20:47:58.069Z,15.10
2017-09-30T20:50:30.850Z,15.00
2017-09-30T20:53:00.625Z,14.90
2017-09-30T20:55:31.425Z,14.80
2017-09-30T20:58:00.257Z,14.80
2017-09-30T21:00:29.273Z,14.80
2017-09-30T21:02:57.300Z,14.80
2017-09-30T21:05:25.325Z,14.70
2017-09-30T21:07:54.165Z,14.70
2017-09-30T21:10:22.153Z,14.60
2017-09-30T21:13:01.606Z,14.60
2017-09-30T21:15:29.688Z,14.50
2017-09-30T21:17:58.697Z,14.50
2017-09-30T21:20:30.612Z,14.40
2017-09-30T21:22:59.700Z,14.40
2017-09-30T21:25:27.713Z,14.40
2017-09-30T21:27:56.594Z,14.30
2017-09-30T21:30:26.129Z,14.30
2017-09-30T21:32:54.157Z,14.30
2017-09-30T21:35:24.153Z,14.40
2017-09-30T21:37:53.637Z,14.30
2017-09-30T21:40:21.660Z,14.30
2017-09-30T21:42:53.205Z,14.30
2017-09-30T21:45:21.240Z,14.30
2017-09-30T21:47:50.320Z,14.30
2017-09-30T21:50:19.269Z,14.30
2017-09-30T21:52:49.004Z,14.30
2017-09-30T21:55:17.032Z,14.30
2017-09-30T21:57:47.060Z,14.30
2017-09-30T22:00:15.100Z,14.30
2017-09-30T22:02:43.112Z,14.40
2017-09-30T22:05:11.921Z,14.40
2017-09-30T22:07:39.969Z,14.40
2017-09-30T22:10:09.764Z,14.30
2017-09-30T22:12:37.797Z,14.30
2017-09-30T22:15:05.821Z,14.10
2017-09-30T22:17:34.617Z,13.80
2017-09-30T22:20:03.408Z,13.80
2017-09-30T22:22:33.088Z,13.60
2017-09-30T22:25:01.126Z,13.60
2017-09-30T22:27:29.156Z,13.60
2017-09-30T22:29:58.852Z,13.30
2017-09-30T22:32:27.819Z,13.30
2017-09-30T22:34:56.830Z,13.20
2017-09-30T22:37:24.863Z,13.20
2017-09-30T22:39:52.892Z,13.10
2017-09-30T22:42:21.856Z,13.00
2017-09-30T22:44:49.880Z,12.90
2017-09-30T22:47:17.908Z,12.90
2017-09-30T22:49:46.716Z,12.90
2017-09-30T22:52:14.744Z,12.80
2017-09-30T22:54:42.772Z,12.80
2017-09-30T22:57:15.093Z,12.90
2017-09-30T22:59:43.128Z,12.90
2017-09-30T23:02:12.147Z,12.80
2017-09-30T23:04:42.092Z,12.80
2017-09-30T23:07:12.807Z,12.70
2017-09-30T23:09:46.295Z,12.70
2017-09-30T23:12:14.340Z,12.70
2017-09-30T23:14:42.371Z,12.70
2017-09-30T23:17:10.421Z,12.70
2017-09-30T23:19:38.443Z,12.70
2017-09-30T23:22:09.519Z,12.60
2017-09-30T23:24:37.551Z,12.70
2017-09-30T23:27:05.571Z,12.60
2017-09-30T23:29:34.379Z,12.60
2017-09-30T23:32:02.420Z,12.60
2017-09-30T23:34:30.468Z,12.60
2017-09-30T23:36:58.523Z,12.50
2017-09-30T23:39:26.579Z,12.50
2017-09-30T23:41:55.619Z,12.50
2017-09-30T23:44:23.656Z,12.50
2017-09-30T23:46:51.691Z,12.50
2017-09-30T23:49:22.295Z,12.50
2017-09-30T23:51:50.327Z,12.40
2017-09-30T23:54:19.371Z,12.40
2017-09-30T23:56:48.343Z,12.40
2017-09-30T23:59:20.627Z,12.40
